Latest Weather Observations for Mount Nowa Nowa

IDV60801

Issued at 10:05 am EST Monday 22 September 2014 (issued every 30 minutes, with the page automatically refreshed every 10 minutes)

About weather observations | Map of weather stations | Latest weather observations for VIC | Other Formats
Station Details ID: 084144 Name: MOUNT NOWA NOWA Lat: -37.69 Lon: 148.09 Height: 350.0 m
Data from the previous 72 hours. | See also: Recent months at Mount Nowa Nowa
Date/Time
EST
Temp
°C
App
Temp
°C
Dew
Point
Rel
Hum
%
Delta-T
°C
Wind Press
QNH
hPa
Press
MSL
hPa
Rain
since 9 am
mm
Dir
 
Spd
km/h
Gust
km/h
Spd
kts
Gust
kts
22/10:00am 14.3 12.6 5.7 56 4.2 NE 4 7 2 4 - - 0.0
22/09:30am 12.8 10.5 5.0 59 3.7 NNE 6 9 3 5 - - 0.0
22/09:00am 11.3 9.0 4.7 64 3.1 ENE 6 9 3 5 - - 0.0
22/08:30am 10.2 7.8 4.4 67 2.6 NNE 6 15 3 8 - - 0.0
22/08:00am 9.4 6.0 4.0 69 2.4 N 11 20 6 11 - - 0.0
22/07:30am 8.3 4.9 3.8 73 2.0 N 11 19 6 10 - - 0.0
22/07:00am 8.1 4.6 3.4 72 2.1 N 11 19 6 10 - - 0.0
22/06:30am 7.8 4.3 3.3 73 2.0 N 11 19 6 10 - - 0.0
22/06:00am 6.8 3.8 3.9 82 1.3 NNE 9 22 5 12 - - 0.0
22/05:30am 7.3 3.6 4.3 81 1.3 N 13 20 7 11 - - 0.0
22/05:00am 7.0 4.0 4.0 81 1.3 NNE 9 15 5 8 - - 0.0
22/04:30am 7.6 5.0 4.4 80 1.4 NNE 7 13 4 7 - - 0.0
22/04:00am 7.7 5.5 5.2 84 1.1 NE 6 13 3 7 - - 0.0
22/03:30am 7.8 4.7 5.4 85 1.1 N 11 17 6 9 - - 0.0
22/03:00am 8.3 5.6 5.4 82 1.3 N 9 15 5 8 - - 0.0
22/02:30am 7.8 5.1 5.4 85 1.1 N 9 13 5 7 - - 0.0
22/02:00am 7.6 4.9 5.6 87 0.9 N 9 17 5 9 - - 0.0
22/01:30am 7.5 5.2 5.5 87 0.9 N 7 15 4 8 - - 0.0
22/01:00am 8.2 5.9 5.5 83 1.2 N 7 13 4 7 - - 0.0
22/12:30am 7.8 5.4 5.3 84 1.1 N 7 11 4 6 - - 0.0
22/12:00am 8.3 6.1 5.4 82 1.3 N 6 9 3 5 - - 0.0
 
Date/Time
EST
Temp
°C
App
Temp
°C
Dew
Point
Rel
Hum
%
Delta-T
°C
Wind Press
QNH
hPa
Press
MSL
hPa
Rain
since 9 am
mm
Dir
 
Spd
km/h
Gust
km/h
Spd
kts
Gust
kts
21/11:30pm 8.6 6.4 5.5 81 1.4 N 6 9 3 5 - - 0.0
21/11:00pm 8.8 6.7 5.7 81 1.4 N 6 7 3 4 - - 0.0
21/10:30pm 8.8 6.6 5.5 80 1.5 N 6 7 3 4 - - 0.0
21/10:00pm 8.9 7.1 5.6 80 1.5 N 4 6 2 3 - - 0.0
21/09:30pm 8.9 7.5 5.6 80 1.5 N 2 4 1 2 - - 0.0
21/09:00pm 8.8 6.7 5.9 82 1.3 N 6 7 3 4 - - 0.0
21/08:30pm 8.9 8.1 6.3 84 1.2 CALM 0 0 0 0 - - 0.0
21/08:00pm 8.5 7.2 6.1 85 1.1 E 2 4 1 2 - - 0.0
21/07:30pm 8.6 6.9 6.1 84 1.2 ESE 4 4 2 2 - - 0.0
21/07:00pm 8.8 7.1 6.1 83 1.3 SE 4 7 2 4 - - 0.0
21/06:30pm 9.3 7.2 6.0 80 1.5 SE 6 9 3 5 - - 0.0
21/06:00pm 9.7 7.4 5.9 77 1.8 SSE 7 13 4 7 - - 0.0
21/05:30pm 10.4 8.2 6.4 76 1.9 SSE 7 13 4 7 - - 0.0
21/05:00pm 11.2 8.2 6.1 71 2.4 SSE 11 19 6 10 - - 0.0
21/04:30pm 12.4 10.3 6.7 68 2.8 SSE 7 15 4 8 - - 0.0
21/04:00pm 14.9 13.3 6.5 57 4.1 WSW 4 9 2 5 - - 0.0
21/03:30pm 15.3 13.3 6.1 54 4.5 WSW 6 9 3 5 - - 0.0
21/03:00pm 15.5 13.7 7.0 57 4.3 WNW 6 9 3 5 - - 0.0
21/02:30pm 15.4 13.4 6.4 55 4.5 W 6 13 3 7 - - 0.0
21/02:00pm 15.0 12.9 5.8 54 4.5 W 6 11 3 6 - - 0.0
21/01:30pm 14.4 12.3 6.0 57 4.1 WSW 6 13 3 7 - - 0.0
21/01:00pm 13.6 11.3 5.7 59 3.8 SW 7 11 4 6 - - 0.0
21/12:30pm 13.8 11.5 5.9 59 3.8 W 7 15 4 8 - - 0.0
21/12:00pm 13.2 11.1 5.6 60 3.6 W 6 11 3 6 - - 0.0
21/11:30am 12.5 10.2 5.7 63 3.2 WSW 7 13 4 7 - - 0.0
21/11:00am 11.1 8.7 5.2 67 2.8 W 7 15 4 8 - - 0.0
21/10:30am 11.0 8.8 5.1 67 2.7 W 6 13 3 7 - - 0.0
21/10:00am 11.0 8.6 5.1 67 2.7 W 7 13 4 7 - - 0.0
21/09:30am 10.4 8.3 5.8 73 2.2 W 6 11 3 6 - - 0.0
21/09:00am 9.5 7.4 6.0 79 1.6 WNW 6 9 3 5 - - 0.0
21/08:30am 8.7 6.6 5.8 82 1.3 W 6 9 3 5 - - 0.0
21/08:00am 8.0 5.9 5.8 86 1.0 W 6 9 3 5 - - 0.0
21/07:30am 7.4 5.1 5.5 88 0.9 WNW 7 11 4 6 - - 0.0
21/07:00am 7.1 4.9 5.4 89 0.8 W 6 9 3 5 - - 0.0
21/06:30am 7.0 4.6 5.3 89 0.8 W 7 9 4 5 - - 0.0
21/06:00am 6.9 4.1 5.2 89 0.8 W 9 13 5 7 - - 0.0
21/05:30am 6.8 4.4 5.3 90 0.7 W 7 13 4 7 - - 0.0
21/05:00am 6.8 4.0 5.3 90 0.7 W 9 17 5 9 - - 0.0
21/04:30am 6.7 4.0 5.5 92 0.5 W 9 17 5 9 - - 0.0
21/04:00am 6.6 3.9 5.4 92 0.5 W 9 15 5 8 - - 0.0
21/03:30am 6.5 4.2 5.5 93 0.5 W 7 13 4 7 - - 0.0
21/03:00am 7.1 4.4 5.7 91 0.6 W 9 15 5 8 - - 0.0
21/02:30am 7.0 4.7 5.8 92 0.5 W 7 11 4 6 - - 0.0
21/02:00am 7.3 4.6 5.8 90 0.7 W 9 13 5 7 - - 0.0
21/01:30am 7.5 4.9 6.0 90 0.7 W 9 11 5 6 - - 0.0
21/01:00am 7.9 5.6 5.9 87 0.9 W 7 13 4 7 - - 0.0
21/12:30am 8.0 5.8 6.1 88 0.9 W 7 13 4 7 - - 0.0
21/12:00am 7.7 5.7 6.3 91 0.7 W 6 9 3 5 - - 0.0
 
Date/Time
EST
Temp
°C
App
Temp
°C
Dew
Point
Rel
Hum
%
Delta-T
°C
Wind Press
QNH
hPa
Press
MSL
hPa
Rain
since 9 am
mm
Dir
 
Spd
km/h
Gust
km/h
Spd
kts
Gust
kts
20/11:30pm 8.0 5.9 6.5 90 0.7 W 7 11 4 6 - - 0.0
20/11:00pm 8.4 6.5 6.7 89 0.8 W 6 11 3 6 - - 0.0
20/10:30pm 8.9 6.9 7.0 88 0.9 W 7 13 4 7 - - 0.0
20/10:00pm 9.1 7.3 7.2 88 0.9 W 6 13 3 7 - - 0.0
20/09:30pm 9.2 7.8 7.2 87 1.0 W 4 7 2 4 - - 0.0
20/09:00pm 9.3 7.9 7.4 88 0.9 WSW 4 7 2 4 - - 0.0
20/08:30pm 9.4 8.1 7.5 88 0.9 WSW 4 6 2 3 - - 0.0
20/08:00pm 9.6 8.7 7.7 88 0.9 W 2 6 1 3 - - 0.0
20/07:30pm 9.7 8.4 7.8 88 0.9 WSW 4 9 2 5 - - 0.0
20/07:00pm 9.7 8.8 7.6 87 1.0 WSW 2 6 1 3 - - 0.0
20/06:30pm 9.7 8.4 7.6 87 1.0 SW 4 9 2 5 - - 0.0
20/06:00pm 10.0 8.7 7.6 85 1.2 WSW 4 7 2 4 - - 0.0
20/05:30pm 10.5 9.2 7.6 82 1.4 SSW 4 9 2 5 - - 0.0
20/05:00pm 10.9 9.3 7.8 81 1.5 SSW 6 13 3 7 - - 0.0
20/04:30pm 12.1 10.5 8.2 77 2.0 S 6 11 3 6 - - 0.0
20/04:00pm 11.4 9.1 7.3 76 2.0 S 9 17 5 9 - - 0.0
20/03:30pm 12.6 10.7 7.5 71 2.5 S 7 15 4 8 - - 0.0
20/03:00pm 13.2 11.3 7.4 68 2.9 SSW 7 13 4 7 - - 0.0
20/02:30pm 14.8 13.1 7.4 61 3.7 W 6 13 3 7 - - 0.0
20/02:00pm 12.8 10.5 5.7 62 3.4 WSW 7 17 4 9 - - 0.0
20/01:30pm 14.4 12.5 7.5 63 3.5 WSW 7 15 4 8 - - 0.0
20/01:00pm 12.9 11.0 6.5 65 3.1 WSW 6 15 3 8 - - 0.0
20/12:30pm 12.2 9.8 6.9 70 2.6 WSW 9 17 5 9 - - 0.0
20/12:00pm 12.1 10.0 6.8 70 2.6 WSW 7 19 4 10 - - 0.0
20/11:30am 11.6 9.7 6.9 73 2.3 W 6 9 3 5 - - 0.0
20/11:00am 11.4 9.4 7.1 75 2.1 W 7 17 4 9 - - 0.0
20/10:30am 11.1 9.0 6.8 75 2.1 W 7 20 4 11 - - 0.0
20/10:00am 10.7 8.6 6.8 77 1.9 W 7 22 4 12 - - 0.0
20/09:30am 9.8 7.8 6.9 82 1.4 W 7 19 4 10 - - 0.0
20/09:00am 9.3 6.6 5.7 78 1.7 W 9 19 5 10 - - 0.0
20/08:30am 9.2 6.5 5.8 79 1.6 W 9 19 5 10 - - 0.0
20/08:00am 8.4 5.2 5.2 80 1.5 W 11 20 6 11 - - 0.0
20/07:30am 7.9 5.0 4.7 80 1.4 W 9 20 5 11 - - 0.0
20/07:00am 7.4 4.5 4.5 82 1.3 W 9 15 5 8 - - 0.0
20/06:30am 7.2 4.3 4.5 83 1.2 W 9 13 5 7 - - 0.0
20/06:00am 7.1 3.8 4.6 84 1.1 W 11 20 6 11 - - 0.0
20/05:30am 7.3 4.0 4.6 83 1.2 W 11 20 6 11 - - 0.0
20/05:00am 7.3 4.0 4.8 84 1.1 W 11 20 6 11 - - 0.0
20/04:30am 7.3 4.4 4.8 84 1.1 W 9 20 5 11 - - 0.0
20/04:00am 7.3 4.1 5.0 85 1.0 W 11 19 6 10 - - 0.0
20/03:30am 7.2 3.6 5.0 86 1.0 W 13 32 7 17 - - 0.0
20/03:00am 7.2 4.0 5.2 87 0.9 W 11 19 6 10 - - 0.0
20/02:30am 7.3 4.1 5.0 85 1.0 W 11 26 6 14 - - 0.0
20/02:00am 7.4 4.2 5.0 85 1.1 W 11 22 6 12 - - 0.0
20/01:30am 7.7 3.8 5.2 84 1.1 W 15 28 8 15 - - 0.0
20/01:00am 7.4 3.8 5.0 85 1.1 W 13 28 7 15 - - 0.0
20/12:30am 7.3 3.7 5.0 85 1.0 W 13 26 7 14 - - 0.0
20/12:00am 7.5 3.5 5.1 85 1.1 W 15 32 8 17 - - 0.0
 
Date/Time
EST
Temp
°C
App
Temp
°C
Dew
Point
Rel
Hum
%
Delta-T
°C
Wind Press
QNH
hPa
Press
MSL
hPa
Rain
since 9 am
mm
Dir
 
Spd
km/h
Gust
km/h
Spd
kts
Gust
kts
19/11:30pm 7.6 4.0 5.1 84 1.1 W 13 26 7 14 - - 0.0
19/11:00pm 7.6 4.4 4.9 83 1.2 W 11 20 6 11 - - 0.0
19/10:30pm 7.9 4.3 4.8 81 1.4 W 13 28 7 15 - - 0.0
19/10:00pm 8.1 4.1 5.0 81 1.4 W 15 33 8 18 - - 0.0
19/09:30pm 8.3 4.3 5.1 80 1.5 W 15 30 8 16 - - 0.0
19/09:00pm 8.5 5.0 5.3 80 1.5 W 13 28 7 15 - - 0.0
19/08:30pm 8.8 5.2 5.0 77 1.7 W 13 32 7 17 - - 0.0
19/08:00pm 8.9 5.3 4.9 76 1.8 W 13 28 7 15 - - 0.0
19/07:30pm 9.2 6.0 5.2 76 1.8 W 11 22 6 12 - - 0.0
19/07:00pm 9.5 6.4 5.7 77 1.8 W 11 20 6 11 - - 0.0
19/06:30pm 9.8 6.7 5.6 75 2.0 W 11 28 6 15 - - 0.0
19/06:00pm 10.4 7.3 5.4 71 2.3 W 11 24 6 13 - - 0.0
19/05:30pm 11.1 8.0 5.6 69 2.6 W 11 22 6 12 - - 0.0
19/05:00pm 12.2 9.3 6.7 69 2.7 W 11 22 6 12 - - 0.0
19/04:30pm 12.4 9.0 5.8 64 3.2 W 13 32 7 17 - - 0.0
19/04:00pm 12.5 9.9 6.1 65 3.1 W 9 19 5 10 - - 0.0
19/03:30pm 12.0 8.5 5.4 64 3.1 WSW 13 32 7 17 - - 0.0
19/03:00pm 14.0 11.2 7.1 63 3.4 W 11 24 6 13 - - 0.0
19/02:30pm 12.8 9.5 6.2 64 3.2 W 13 24 7 13 - - 0.0
19/02:00pm 12.0 8.9 5.6 65 3.0 W 11 28 6 15 - - 0.0
19/01:30pm 12.1 9.6 6.4 68 2.8 W 9 22 5 12 - - 0.0
19/01:00pm 12.5 9.1 5.9 64 3.2 W 13 24 7 13 - - 0.0
19/12:30pm 11.0 7.5 5.5 69 2.6 W 13 32 7 17 - - 0.0
19/12:00pm 11.4 8.3 5.7 68 2.7 WSW 11 24 6 13 - - 0.0
19/11:30am 11.4 8.3 5.5 67 2.8 W 11 24 6 13 - - 0.0
19/11:00am 11.6 8.5 5.7 67 2.8 W 11 28 6 15 - - 0.0
19/10:30am 10.6 6.7 5.4 70 2.4 W 15 28 8 15 - - 0.0

Other Formats:

Comma delimited format used in spreadsheet applications
http://www.bom.gov.au/fwo/IDV60801/IDV60801.94930.axf

JavaScript Object Notation format (JSON) in row-major order
http://www.bom.gov.au/fwo/IDV60801/IDV60801.94930.json